Time;durP1;ratioP1;P1;durP2;ratioP2;P2;SDS_P1;SDS_P2;PMS_P1;PMS_P2;Temp;Humidity;BMP_temperature;BMP_pressure;BME280_temperature;BME280_humidity;BME280_pressure;Samples;Min_cycle;Max_cycle;Signal;HPM_P1;HPM_P2
2022/03/04 00:00:54;;;;;;;4.45;3.60;;;;;;;;;;4965172;28;20075;-76
2022/03/04 00:03:20;;;;;;;5.47;3.28;;;;;;;;;;4966422;28;20034;-77
2022/03/04 00:05:46;;;;;;;7.63;3.95;;;;;;;;;;4975391;28;20030;-76
2022/03/04 00:08:12;;;;;;;4.07;2.95;;;;;;;;;;4969809;28;20086;-76
2022/03/04 00:10:39;;;;;;;5.97;3.60;;;;;;;;;;4980282;28;20027;-77
2022/03/04 00:13:05;;;;;;;6.35;3.65;;;;;;;;;;4972909;28;20784;-76
2022/03/04 00:15:31;;;;;;;6.00;3.00;;;;;;;;;;4967294;28;20034;-76
2022/03/04 00:17:57;;;;;;;3.28;2.97;;;;;;;;;;4967745;28;20031;-76
2022/03/04 00:20:23;;;;;;;3.13;2.80;;;;;;;;;;4959086;28;20052;-76
2022/03/04 00:22:50;;;;;;;3.95;2.85;;;;;;;;;;4964498;28;20050;-76
2022/03/04 00:25:16;;;;;;;4.70;2.90;;;;;;;;;;4972513;28;20394;-77
2022/03/04 00:27:42;;;;;;;4.55;3.08;;;;;;;;;;4954530;28;20452;-76
2022/03/04 00:30:08;;;;;;;5.40;3.15;;;;;;;;;;4975968;28;20037;-76
2022/03/04 00:32:35;;;;;;;4.47;3.00;;;;;;;;;;4979883;28;20066;-76
2022/03/04 00:35:01;;;;;;;5.70;3.17;;;;;;;;;;4959786;28;20597;-76
2022/03/04 00:37:28;;;;;;;4.68;3.13;;;;;;;;;;4954361;28;20023;-77
2022/03/04 00:39:54;;;;;;;4.18;2.92;;;;;;;;;;4967669;28;20058;-76
2022/03/04 00:42:20;;;;;;;4.15;2.67;;;;;;;;;;4965395;28;20473;-76
2022/03/04 00:44:46;;;;;;;4.93;3.03;;;;;;;;;;4972183;28;20031;-76
2022/03/04 00:47:12;;;;;;;4.45;2.67;;;;;;;;;;4970821;28;20081;-76
2022/03/04 00:49:38;;;;;;;5.45;2.90;;;;;;;;;;4969967;28;20494;-76
2022/03/04 00:52:04;;;;;;;3.22;2.40;;;;;;;;;;4964484;28;20069;-76
2022/03/04 00:54:30;;;;;;;3.67;2.38;;;;;;;;;;4962495;28;20560;-77
2022/03/04 00:56:56;;;;;;;3.42;2.42;;;;;;;;;;4970219;28;20055;-76
2022/03/04 00:59:23;;;;;;;3.63;2.60;;;;;;;;;;4962290;28;20031;-76
2022/03/04 01:01:49;;;;;;;4.38;2.45;;;;;;;;;;4957546;28;20038;-77
2022/03/04 01:04:15;;;;;;;3.15;2.63;;;;;;;;;;4965159;28;20472;-76
2022/03/04 01:06:41;;;;;;;5.00;2.50;;;;;;;;;;4958883;28;20499;-76
2022/03/04 01:09:07;;;;;;;5.30;2.25;;;;;;;;;;4974985;28;20492;-76
2022/03/04 01:11:33;;;;;;;2.95;2.65;;;;;;;;;;4966512;28;20508;-76
2022/03/04 01:13:59;;;;;;;3.65;2.53;;;;;;;;;;4973545;28;20110;-77
2022/03/04 01:16:25;;;;;;;4.32;2.17;;;;;;;;;;4969652;28;20023;-76
2022/03/04 01:18:51;;;;;;;4.20;2.40;;;;;;;;;;4969134;28;20035;-76
2022/03/04 01:21:17;;;;;;;6.45;2.50;;;;;;;;;;4964673;28;20027;-75
2022/03/04 01:23:44;;;;;;;3.53;2.63;;;;;;;;;;4977587;28;20066;-76
2022/03/04 01:26:10;;;;;;;3.30;2.08;;;;;;;;;;4970019;28;20049;-76
2022/03/04 01:28:36;;;;;;;3.80;2.67;;;;;;;;;;4969113;28;20500;-75
2022/03/04 01:31:02;;;;;;;4.72;2.30;;;;;;;;;;4969453;28;20063;-76
2022/03/04 01:33:28;;;;;;;3.47;2.33;;;;;;;;;;4970825;28;20027;-76
2022/03/04 01:35:54;;;;;;;2.67;2.08;;;;;;;;;;4970542;28;20585;-75
2022/03/04 01:38:20;;;;;;;12.00;2.90;;;;;;;;;;4955866;28;20543;-76
2022/03/04 01:40:46;;;;;;;4.63;1.98;;;;;;;;;;4966704;28;20038;-75
2022/03/04 01:43:13;;;;;;;3.03;2.65;;;;;;;;;;4958263;28;20031;-76
2022/03/04 01:45:39;;;;;;;5.10;2.35;;;;;;;;;;4957112;28;20038;-75
2022/03/04 01:48:05;;;;;;;4.05;2.40;;;;;;;;;;4970650;28;20023;-75
2022/03/04 01:50:31;;;;;;;3.10;2.38;;;;;;;;;;4970342;28;20109;-76
2022/03/04 01:52:57;;;;;;;7.70;2.95;;;;;;;;;;4956877;28;20154;-76
2022/03/04 01:55:23;;;;;;;4.40;2.55;;;;;;;;;;4972337;28;20038;-76
2022/03/04 01:57:49;;;;;;;3.38;2.13;;;;;;;;;;4965401;28;20039;-77
2022/03/04 02:00:16;;;;;;;4.07;2.50;;;;;;;;;;4970020;28;20035;-76
2022/03/04 02:02:42;;;;;;;3.97;2.95;;;;;;;;;;4955000;28;20038;-76
2022/03/04 02:05:12;;;;;;;4.97;3.08;;;;;;;;;;4970244;28;20033;-76
2022/03/04 02:07:38;;;;;;;3.95;2.88;;;;;;;;;;4970762;28;20719;-76
2022/03/04 02:10:04;;;;;;;3.55;2.53;;;;;;;;;;4967077;28;20035;-77
2022/03/04 02:12:30;;;;;;;5.13;2.63;;;;;;;;;;4969021;28;20453;-76
2022/03/04 02:14:56;;;;;;;6.45;2.53;;;;;;;;;;4968607;28;20133;-76
2022/03/04 02:17:22;;;;;;;7.95;2.80;;;;;;;;;;4969338;28;20077;-76
2022/03/04 02:19:55;;;;;;;4.60;2.60;;;;;;;;;;4970235;28;20062;-76
2022/03/04 02:22:21;;;;;;;6.55;2.58;;;;;;;;;;4976010;28;20030;-76
2022/03/04 02:24:47;;;;;;;4.53;2.53;;;;;;;;;;4965246;28;20464;-76
2022/03/04 02:27:13;;;;;;;5.35;2.45;;;;;;;;;;4968893;28;20090;-76
2022/03/04 02:29:39;;;;;;;6.30;2.90;;;;;;;;;;4967649;28;20031;-76
2022/03/04 02:32:06;;;;;;;3.83;2.45;;;;;;;;;;4979386;28;20679;-77
2022/03/04 02:34:32;;;;;;;3.55;2.17;;;;;;;;;;4976490;28;20106;-76
2022/03/04 02:36:58;;;;;;;3.53;2.17;;;;;;;;;;4982588;28;20481;-76
2022/03/04 02:39:24;;;;;;;4.22;2.35;;;;;;;;;;4963733;28;20043;-77
2022/03/04 02:41:50;;;;;;;5.75;2.40;;;;;;;;;;4961674;28;20039;-76
2022/03/04 02:44:17;;;;;;;4.05;2.40;;;;;;;;;;4960304;28;20027;-77
2022/03/04 02:46:43;;;;;;;3.88;2.13;;;;;;;;;;4968654;28;20023;-77
2022/03/04 02:49:10;;;;;;;2.80;2.08;;;;;;;;;;4966498;28;20093;-75
2022/03/04 02:51:36;;;;;;;4.45;2.40;;;;;;;;;;4968794;28;20191;-75
2022/03/04 02:54:02;;;;;;;3.63;2.63;;;;;;;;;;4969279;28;20031;-74
2022/03/04 02:56:28;;;;;;;7.30;3.40;;;;;;;;;;4970858;28;20074;-75
2022/03/04 02:58:55;;;;;;;3.67;2.30;;;;;;;;;;4970982;28;20034;-76
2022/03/04 03:01:21;;;;;;;3.95;2.47;;;;;;;;;;4968014;28;20498;-76
2022/03/04 03:03:47;;;;;;;5.10;2.50;;;;;;;;;;4968361;28;20037;-76
2022/03/04 03:06:13;;;;;;;4.40;2.35;;;;;;;;;;4964240;28;20027;-76
2022/03/04 03:08:39;;;;;;;3.17;2.28;;;;;;;;;;4959875;28;20027;-76
2022/03/04 03:11:05;;;;;;;3.90;2.70;;;;;;;;;;4961813;28;20035;-75
2022/03/04 03:13:31;;;;;;;3.58;2.30;;;;;;;;;;4959745;28;20035;-76
2022/03/04 03:15:57;;;;;;;4.05;2.47;;;;;;;;;;4953683;28;20118;-76
2022/03/04 03:18:23;;;;;;;4.68;2.30;;;;;;;;;;4970491;28;20081;-76
2022/03/04 03:20:49;;;;;;;6.22;2.67;;;;;;;;;;4968757;28;20035;-75
2022/03/04 03:23:15;;;;;;;4.82;2.28;;;;;;;;;;4953814;28;20367;-76
2022/03/04 03:25:41;;;;;;;7.55;2.80;;;;;;;;;;4951157;28;20035;-75
2022/03/04 03:28:07;;;;;;;4.93;2.72;;;;;;;;;;4962012;28;20049;-75
2022/03/04 03:30:34;;;;;;;4.53;2.70;;;;;;;;;;4970345;28;20073;-75
2022/03/04 03:33:00;;;;;;;8.32;2.40;;;;;;;;;;4974090;28;20460;-75
2022/03/04 03:35:26;;;;;;;3.53;2.28;;;;;;;;;;4973421;28;20052;-75
2022/03/04 03:37:52;;;;;;;4.13;2.72;;;;;;;;;;4973439;28;20081;-76
2022/03/04 03:40:18;;;;;;;5.00;2.63;;;;;;;;;;4930903;28;1184110;-76
2022/03/04 03:42:44;;;;;;;2.35;2.10;;;;;;;;;;4966223;28;20030;-76
2022/03/04 03:45:11;;;;;;;6.68;2.50;;;;;;;;;;4975345;28;20096;-74
2022/03/04 03:47:38;;;;;;;6.10;2.97;;;;;;;;;;4974078;28;20041;-75
2022/03/04 03:50:06;;;;;;;5.15;2.58;;;;;;;;;;4974564;28;20155;-74
2022/03/04 03:52:32;;;;;;;6.03;2.47;;;;;;;;;;4967783;28;20027;-75
2022/03/04 03:54:58;;;;;;;5.05;2.95;;;;;;;;;;4968435;28;20109;-76
2022/03/04 03:57:25;;;;;;;3.40;2.45;;;;;;;;;;4968265;28;20035;-75
2022/03/04 03:59:51;;;;;;;4.15;2.70;;;;;;;;;;4971672;28;20428;-75
2022/03/04 04:02:18;;;;;;;5.45;2.60;;;;;;;;;;4970949;28;20457;-75
2022/03/04 04:04:44;;;;;;;6.53;3.10;;;;;;;;;;4972385;28;20201;-75
2022/03/04 04:07:12;;;;;;;4.30;2.63;;;;;;;;;;4970171;28;20734;-76
2022/03/04 04:09:38;;;;;;;3.90;2.47;;;;;;;;;;4977039;28;20122;-75
2022/03/04 04:12:04;;;;;;;4.97;2.50;;;;;;;;;;4968969;28;20058;-75
2022/03/04 04:14:30;;;;;;;4.97;2.75;;;;;;;;;;4951219;28;20110;-75
2022/03/04 04:16:56;;;;;;;4.53;2.53;;;;;;;;;;4961313;28;20027;-75
2022/03/04 04:19:23;;;;;;;4.05;2.65;;;;;;;;;;4968531;28;20509;-75
2022/03/04 04:21:50;;;;;;;4.25;2.30;;;;;;;;;;4974315;28;20045;-75
2022/03/04 04:24:16;;;;;;;3.00;2.42;;;;;;;;;;4962830;28;20027;-76
2022/03/04 04:26:43;;;;;;;7.72;2.95;;;;;;;;;;4957310;28;20114;-75
2022/03/04 04:29:09;;;;;;;5.95;2.67;;;;;;;;;;4971922;28;20097;-75
2022/03/04 04:31:35;;;;;;;4.47;2.67;;;;;;;;;;4965696;28;20481;-75
2022/03/04 04:34:02;;;;;;;4.30;2.92;;;;;;;;;;4970217;28;20098;-76
2022/03/04 04:36:29;;;;;;;7.70;3.83;;;;;;;;;;4957569;28;20023;-76
2022/03/04 04:38:55;;;;;;;6.60;2.55;;;;;;;;;;4971843;28;20134;-75
2022/03/04 04:41:21;;;;;;;4.57;2.28;;;;;;;;;;4978115;28;20050;-74
2022/03/04 04:43:47;;;;;;;5.25;2.55;;;;;;;;;;4968115;28;20032;-76
2022/03/04 04:46:14;;;;;;;6.03;2.40;;;;;;;;;;4965075;28;20481;-74
2022/03/04 04:48:40;;;;;;;6.57;2.60;;;;;;;;;;4972463;28;20077;-75
2022/03/04 04:51:06;;;;;;;6.07;3.28;;;;;;;;;;4970631;28;20141;-75
2022/03/04 04:53:34;;;;;;;5.53;2.78;;;;;;;;;;4973952;28;20085;-75
2022/03/04 04:56:00;;;;;;;3.75;2.47;;;;;;;;;;4962281;28;20118;-75
2022/03/04 04:58:26;;;;;;;6.85;2.50;;;;;;;;;;4957259;28;20122;-75
2022/03/04 05:00:55;;;;;;;5.80;2.72;;;;;;;;;;4969786;28;20058;-75
2022/03/04 05:03:24;;;;;;;7.22;2.85;;;;;;;;;;4969658;28;20030;-76
2022/03/04 05:05:51;;;;;;;6.72;2.70;;;;;;;;;;4968571;28;20035;-75
2022/03/04 05:08:18;;;;;;;8.98;2.65;;;;;;;;;;4961844;28;20054;-75
2022/03/04 05:10:44;;;;;;;5.88;3.05;;;;;;;;;;4966314;28;20027;-76
2022/03/04 05:13:11;;;;;;;5.75;3.05;;;;;;;;;;4961554;28;20511;-75
2022/03/04 05:15:37;;;;;;;5.13;2.70;;;;;;;;;;4960221;28;20034;-75
2022/03/04 05:18:03;;;;;;;3.95;2.55;;;;;;;;;;4968858;28;20031;-75
2022/03/04 05:20:29;;;;;;;6.78;2.90;;;;;;;;;;4963735;28;20089;-76
2022/03/04 05:22:56;;;;;;;6.43;2.63;;;;;;;;;;4954433;28;20030;-76
2022/03/04 05:25:22;;;;;;;5.40;2.53;;;;;;;;;;4972900;28;20027;-76
2022/03/04 05:27:48;;;;;;;6.60;2.60;;;;;;;;;;4972180;28;20126;-76
2022/03/04 05:30:14;;;;;;;5.95;2.50;;;;;;;;;;4954683;28;20039;-76
2022/03/04 05:32:40;;;;;;;7.13;2.72;;;;;;;;;;4971271;28;20377;-74
2022/03/04 05:35:07;;;;;;;3.08;2.33;;;;;;;;;;4962345;28;20086;-75
2022/03/04 05:37:33;;;;;;;5.38;2.97;;;;;;;;;;4969458;28;20036;-76
2022/03/04 05:39:59;;;;;;;5.65;2.67;;;;;;;;;;4974722;28;20145;-75
2022/03/04 05:42:25;;;;;;;6.75;2.65;;;;;;;;;;4960594;28;20031;-75
2022/03/04 05:44:52;;;;;;;4.47;2.78;;;;;;;;;;4977686;28;20026;-76
2022/03/04 05:47:18;;;;;;;3.38;2.10;;;;;;;;;;4966634;28;20477;-75
2022/03/04 05:49:44;;;;;;;4.18;2.35;;;;;;;;;;4971114;28;20067;-76
2022/03/04 05:52:10;;;;;;;3.17;2.30;;;;;;;;;;4967067;28;20052;-76
2022/03/04 05:54:36;;;;;;;4.57;2.63;;;;;;;;;;4964587;28;20038;-76
2022/03/04 05:57:03;;;;;;;5.55;2.38;;;;;;;;;;4968140;28;20055;-75
2022/03/04 05:59:29;;;;;;;5.80;3.03;;;;;;;;;;4963530;28;20030;-76
2022/03/04 06:01:55;;;;;;;5.13;2.92;;;;;;;;;;4968177;28;20358;-76
2022/03/04 06:04:22;;;;;;;4.20;2.28;;;;;;;;;;4951697;28;20486;-76
2022/03/04 06:06:48;;;;;;;10.38;3.47;;;;;;;;;;4963952;28;20046;-75
2022/03/04 06:09:14;;;;;;;4.40;2.50;;;;;;;;;;4957873;28;20497;-76
2022/03/04 06:11:40;;;;;;;3.55;2.35;;;;;;;;;;4954689;28;20059;-75
2022/03/04 06:14:07;;;;;;;3.78;2.67;;;;;;;;;;4967177;28;20521;-75
2022/03/04 06:16:33;;;;;;;6.32;3.72;;;;;;;;;;4969128;28;20054;-75
2022/03/04 06:18:59;;;;;;;7.07;2.60;;;;;;;;;;4970829;28;20758;-76
2022/03/04 06:21:25;;;;;;;7.53;2.75;;;;;;;;;;4965473;28;20441;-75
2022/03/04 06:23:52;;;;;;;3.97;2.30;;;;;;;;;;4969589;28;20034;-76
2022/03/04 06:26:20;;;;;;;6.03;2.65;;;;;;;;;;4976014;28;20024;-76
2022/03/04 06:28:46;;;;;;;5.43;3.20;;;;;;;;;;4958610;28;20132;-75
2022/03/04 06:31:12;;;;;;;6.63;2.95;;;;;;;;;;4959630;28;20038;-75
2022/03/04 06:33:39;;;;;;;8.98;2.47;;;;;;;;;;4952260;28;20035;-75
2022/03/04 06:36:05;;;;;;;5.35;2.40;;;;;;;;;;4966124;28;20507;-75
2022/03/04 06:38:32;;;;;;;4.32;2.50;;;;;;;;;;4952217;28;20033;-76
2022/03/04 06:40:59;;;;;;;4.85;2.60;;;;;;;;;;4966690;28;20097;-75
2022/03/04 06:43:25;;;;;;;4.53;2.22;;;;;;;;;;4965725;28;20054;-75
2022/03/04 06:45:51;;;;;;;6.93;3.42;;;;;;;;;;4965875;28;20023;-75
2022/03/04 06:48:18;;;;;;;7.00;2.22;;;;;;;;;;4966795;28;20023;-76
2022/03/04 06:50:45;;;;;;;4.55;2.20;;;;;;;;;;4971338;28;20038;-75
2022/03/04 06:53:11;;;;;;;5.55;2.58;;;;;;;;;;4956285;28;20039;-76
2022/03/04 06:55:38;;;;;;;5.47;2.40;;;;;;;;;;4970566;28;20078;-76
2022/03/04 06:58:04;;;;;;;6.68;2.53;;;;;;;;;;4968474;28;20022;-76
2022/03/04 07:00:30;;;;;;;5.20;2.45;;;;;;;;;;4970116;28;20031;-76
2022/03/04 07:02:56;;;;;;;6.72;3.20;;;;;;;;;;4956248;28;20515;-75
2022/03/04 07:05:23;;;;;;;6.57;2.25;;;;;;;;;;4972913;28;20022;-75
2022/03/04 07:07:50;;;;;;;6.85;2.30;;;;;;;;;;4971142;28;20038;-76
2022/03/04 07:10:16;;;;;;;9.40;2.22;;;;;;;;;;4973512;28;20756;-76
2022/03/04 07:12:42;;;;;;;3.38;2.30;;;;;;;;;;4974753;28;20481;-77
2022/03/04 07:15:09;;;;;;;4.32;2.28;;;;;;;;;;4973214;28;20035;-77
2022/03/04 07:17:35;;;;;;;3.65;2.22;;;;;;;;;;4977515;28;20084;-76
2022/03/04 07:20:02;;;;;;;3.20;2.13;;;;;;;;;;4974964;28;20045;-76
2022/03/04 07:22:28;;;;;;;7.70;3.08;;;;;;;;;;4955902;28;20023;-76
2022/03/04 07:24:55;;;;;;;8.75;2.53;;;;;;;;;;4968936;28;20282;-76
2022/03/04 07:27:21;;;;;;;11.05;4.88;;;;;;;;;;4972501;28;20030;-75
2022/03/04 07:29:47;;;;;;;6.30;2.50;;;;;;;;;;4973922;28;20037;-76
2022/03/04 07:32:13;;;;;;;4.80;2.50;;;;;;;;;;4971155;28;20030;-77
2022/03/04 07:34:39;;;;;;;5.05;2.40;;;;;;;;;;4955518;28;20090;-77
2022/03/04 07:37:05;;;;;;;4.18;2.47;;;;;;;;;;4959658;28;20030;-76
2022/03/04 07:39:32;;;;;;;6.68;2.75;;;;;;;;;;4956136;28;20078;-77
2022/03/04 07:41:58;;;;;;;3.55;2.55;;;;;;;;;;4956833;28;20082;-77
2022/03/04 07:44:24;;;;;;;6.10;3.40;;;;;;;;;;4971776;28;20031;-76
2022/03/04 07:46:50;;;;;;;4.72;3.42;;;;;;;;;;4971195;28;20035;-76
2022/03/04 07:49:17;;;;;;;8.95;3.42;;;;;;;;;;4971494;28;20043;-76
2022/03/04 07:51:43;;;;;;;5.03;3.38;;;;;;;;;;4971105;28;20026;-76
2022/03/04 07:54:10;;;;;;;3.92;2.83;;;;;;;;;;4973621;28;20049;-76
2022/03/04 07:56:36;;;;;;;5.40;2.75;;;;;;;;;;4971379;28;20022;-75
2022/03/04 07:59:02;;;;;;;4.65;2.80;;;;;;;;;;4971543;28;20357;-76
2022/03/04 08:01:28;;;;;;;14.18;4.40;;;;;;;;;;4962342;28;20026;-76
2022/03/04 08:03:54;;;;;;;6.22;3.35;;;;;;;;;;4972670;28;20038;-75
2022/03/04 08:06:20;;;;;;;6.20;3.28;;;;;;;;;;4973883;28;20026;-77
2022/03/04 08:08:46;;;;;;;6.28;3.28;;;;;;;;;;4973171;28;20041;-76
2022/03/04 08:11:13;;;;;;;3.67;2.28;;;;;;;;;;4964849;28;20553;-75
2022/03/04 08:13:39;;;;;;;5.45;2.35;;;;;;;;;;4960964;28;20054;-76
2022/03/04 08:16:05;;;;;;;4.25;2.47;;;;;;;;;;4962779;28;20022;-76
2022/03/04 08:18:31;;;;;;;5.72;2.72;;;;;;;;;;4954004;28;20063;-75
2022/03/04 08:20:59;;;;;;;4.35;2.30;;;;;;;;;;4966646;28;20019;-76
2022/03/04 08:23:25;;;;;;;6.05;2.30;;;;;;;;;;4951730;28;20024;-76
2022/03/04 08:25:51;;;;;;;8.85;3.00;;;;;;;;;;4954720;28;20026;-75
2022/03/04 08:28:18;;;;;;;6.70;3.08;;;;;;;;;;4953133;28;20032;-75
2022/03/04 08:30:44;;;;;;;4.50;2.38;;;;;;;;;;4966624;28;20118;-76
2022/03/04 08:33:10;;;;;;;6.03;2.30;;;;;;;;;;4965038;28;20157;-75
2022/03/04 08:35:36;;;;;;;3.78;2.13;;;;;;;;;;4970710;28;20015;-75
2022/03/04 08:38:02;;;;;;;6.22;2.60;;;;;;;;;;4963962;28;20035;-75
2022/03/04 08:40:29;;;;;;;6.25;2.53;;;;;;;;;;4963882;28;20043;-74
2022/03/04 08:42:55;;;;;;;5.35;2.20;;;;;;;;;;4968747;28;20046;-77
2022/03/04 08:45:21;;;;;;;4.72;2.10;;;;;;;;;;4958629;28;20034;-78
2022/03/04 08:47:47;;;;;;;4.38;2.50;;;;;;;;;;4964226;28;20045;-78
2022/03/04 08:50:15;;;;;;;4.50;2.33;;;;;;;;;;4944158;28;20405;-77
2022/03/04 08:52:42;;;;;;;3.55;2.30;;;;;;;;;;4955422;28;20054;-78
2022/03/04 08:55:14;;;;;;;5.40;2.72;;;;;;;;;;4956232;28;20023;-77
2022/03/04 08:57:41;;;;;;;7.82;2.38;;;;;;;;;;4942908;28;20447;-75
2022/03/04 09:00:09;;;;;;;4.75;2.47;;;;;;;;;;4956501;28;20393;-74
2022/03/04 09:02:36;;;;;;;2.97;1.80;;;;;;;;;;4956713;28;20022;-76
2022/03/04 09:05:03;;;;;;;7.53;3.88;;;;;;;;;;4958036;28;20249;-76
2022/03/04 09:07:30;;;;;;;5.55;2.17;;;;;;;;;;4940331;28;20113;-76
2022/03/04 09:09:56;;;;;;;14.82;2.75;;;;;;;;;;4961324;28;20085;-76
2022/03/04 09:12:22;;;;;;;3.95;2.40;;;;;;;;;;4950732;28;20031;-75
2022/03/04 09:14:48;;;;;;;7.20;2.25;;;;;;;;;;4952124;28;20066;-76
2022/03/04 09:17:14;;;;;;;5.18;2.33;;;;;;;;;;4950459;28;20047;-76
2022/03/04 09:19:40;;;;;;;5.13;2.40;;;;;;;;;;4937770;28;20035;-77
2022/03/04 09:22:06;;;;;;;4.32;2.28;;;;;;;;;;4962616;28;20047;-76
2022/03/04 09:24:32;;;;;;;7.13;3.15;;;;;;;;;;4964143;28;20027;-75
2022/03/04 09:26:59;;;;;;;6.63;2.30;;;;;;;;;;4952945;28;20177;-76
2022/03/04 09:29:25;;;;;;;4.28;2.40;;;;;;;;;;4948838;28;20046;-75
2022/03/04 09:31:51;;;;;;;6.70;2.42;;;;;;;;;;4954553;28;20042;-76
2022/03/04 09:34:17;;;;;;;3.92;2.20;;;;;;;;;;4955456;28;20142;-76
2022/03/04 09:36:43;;;;;;;6.13;2.67;;;;;;;;;;4953768;28;20105;-76
2022/03/04 09:39:09;;;;;;;3.03;2.13;;;;;;;;;;4955336;28;20185;-77
2022/03/04 09:41:35;;;;;;;5.47;2.20;;;;;;;;;;4964907;28;20090;-77
2022/03/04 09:44:02;;;;;;;5.35;2.40;;;;;;;;;;4965678;28;20041;-77
2022/03/04 09:46:28;;;;;;;4.15;2.05;;;;;;;;;;4963396;28;20022;-78
2022/03/04 09:48:55;;;;;;;3.70;2.13;;;;;;;;;;4967234;28;20041;-78
2022/03/04 09:51:21;;;;;;;5.18;2.00;;;;;;;;;;4965980;28;20034;-79
2022/03/04 09:53:50;;;;;;;4.38;2.10;;;;;;;;;;4948556;28;20400;-77
2022/03/04 09:56:19;;;;;;;5.10;3.17;;;;;;;;;;4964848;28;20130;-77
2022/03/04 09:58:45;;;;;;;4.55;2.10;;;;;;;;;;4964702;28;20031;-77
2022/03/04 10:01:15;;;;;;;5.07;2.17;;;;;;;;;;4969324;28;20038;-75
2022/03/04 10:03:44;;;;;;;4.47;2.40;;;;;;;;;;4961878;28;20038;-76
2022/03/04 10:06:10;;;;;;;3.45;2.10;;;;;;;;;;4966039;28;20393;-75
2022/03/04 10:08:43;;;;;;;5.10;2.22;;;;;;;;;;4961061;28;20042;-77
2022/03/04 10:11:10;;;;;;;8.63;2.65;;;;;;;;;;4949924;28;20024;-77
2022/03/04 10:13:50;;;;;;;5.05;2.10;;;;;;;;;;4960612;28;20152;-75
2022/03/04 10:16:27;;;;;;;7.65;2.20;;;;;;;;;;4958844;28;21035;-75
2022/03/04 10:19:13;;;;;;;5.93;2.75;;;;;;;;;;4963106;28;20149;-75
2022/03/04 10:21:51;;;;;;;3.03;2.10;;;;;;;;;;4962980;28;20023;-80
2022/03/04 10:24:21;;;;;;;4.68;2.33;;;;;;;;;;4961309;28;20493;-79
2022/03/04 10:26:48;;;;;;;6.38;1.95;;;;;;;;;;4947955;28;20359;-76
2022/03/04 10:29:18;;;;;;;5.50;2.47;;;;;;;;;;4962835;28;20029;-77
2022/03/04 10:32:03;;;;;;;5.03;2.63;;;;;;;;;;4947297;28;20034;-77
2022/03/04 10:34:29;;;;;;;5.35;2.30;;;;;;;;;;4963869;28;20078;-76
2022/03/04 10:36:55;;;;;;;6.32;2.40;;;;;;;;;;4954866;28;20118;-78
2022/03/04 10:39:22;;;;;;;7.60;2.70;;;;;;;;;;4954308;28;20513;-76
2022/03/04 10:41:51;;;;;;;5.45;2.45;;;;;;;;;;4940421;28;20047;-78
2022/03/04 10:44:29;;;;;;;9.15;4.32;;;;;;;;;;4964261;28;20053;-76
2022/03/04 10:46:56;;;;;;;5.80;2.38;;;;;;;;;;4967963;28;20085;-76
2022/03/04 10:49:27;;;;;;;3.80;2.28;;;;;;;;;;4966881;28;20035;-78
2022/03/04 10:52:05;;;;;;;4.40;2.42;;;;;;;;;;4957239;28;20065;-79
2022/03/04 10:54:31;;;;;;;5.32;2.75;;;;;;;;;;4965529;28;20030;-78
2022/03/04 10:56:57;;;;;;;5.32;2.78;;;;;;;;;;4958896;28;20031;-78
2022/03/04 10:59:24;;;;;;;5.68;2.15;;;;;;;;;;4974035;28;20054;-81
2022/03/04 11:01:51;;;;;;;8.02;2.58;;;;;;;;;;4979671;28;20034;-79
2022/03/04 11:04:18;;;;;;;3.63;1.90;;;;;;;;;;4959647;28;20034;-78
2022/03/04 11:06:45;;;;;;;6.72;2.30;;;;;;;;;;4961482;28;20799;-78
2022/03/04 11:09:12;;;;;;;4.25;1.98;;;;;;;;;;4960440;28;20027;-78
2022/03/04 11:11:41;;;;;;;3.30;1.90;;;;;;;;;;4951243;28;20477;-76
2022/03/04 11:14:08;;;;;;;5.70;2.03;;;;;;;;;;4956952;28;20027;-77
2022/03/04 11:16:35;;;;;;;5.50;2.28;;;;;;;;;;4956189;28;20039;-77
2022/03/04 11:19:01;;;;;;;6.38;2.22;;;;;;;;;;4957730;28;20035;-75
2022/03/04 11:21:28;;;;;;;3.88;1.75;;;;;;;;;;4956649;28;20426;-76
2022/03/04 11:23:54;;;;;;;7.70;2.13;;;;;;;;;;4955794;28;20558;-76
2022/03/04 11:26:21;;;;;;;3.78;1.75;;;;;;;;;;4969897;28;20030;-77
2022/03/04 11:28:52;;;;;;;3.20;2.38;;;;;;;;;;4965985;28;20117;-76
2022/03/04 11:31:23;;;;;;;3.15;1.92;;;;;;;;;;4969249;28;20026;-77
2022/03/04 11:33:51;;;;;;;2.67;1.85;;;;;;;;;;4947174;28;20609;-76
2022/03/04 11:36:17;;;;;;;3.40;2.10;;;;;;;;;;4959894;28;20023;-79
2022/03/04 11:38:49;;;;;;;4.63;1.55;;;;;;;;;;4978575;28;20018;-79
2022/03/04 11:41:25;;;;;;;3.88;1.98;;;;;;;;;;4959307;28;20509;-79
2022/03/04 11:43:50;;;;;;;;;;;;;;;;;;4951918;28;20132;-78
2022/03/04 11:46:16;;;;;;;;;;;;;;;;;;4939187;28;19918;-77
2022/03/04 11:48:42;;;;;;;;;;;;;;;;;;4966301;28;19941;-77
2022/03/04 11:51:15;;;;;;;1.90;1.73;;;;;;;;;;4962276;28;20436;-76
2022/03/04 11:53:41;;;;;;;9.48;2.40;;;;;;;;;;4963889;28;20023;-78
2022/03/04 11:56:11;;;;;;;11.32;2.95;;;;;;;;;;4964245;28;20051;-81
2022/03/04 11:58:55;;;;;;;9.25;3.42;;;;;;;;;;4956326;28;20073;-78
2022/03/04 12:01:29;;;;;;;6.10;2.90;;;;;;;;;;4949706;28;20034;-75
2022/03/04 12:04:05;;;;;;;3.95;2.63;;;;;;;;;;4946751;28;20034;-73
2022/03/04 12:06:32;;;;;;;3.03;1.77;;;;;;;;;;4932960;28;20055;-76
2022/03/04 12:09:18;;;;;;;7.88;5.43;;;;;;;;;;4941937;28;20025;-78
2022/03/04 12:12:04;;;;;;;9.07;3.65;;;;;;;;;;4945332;28;20043;-75
2022/03/04 12:14:30;;;;;;;9.13;5.78;;;;;;;;;;4954064;28;20387;-73
2022/03/04 12:16:57;;;;;;;6.63;4.00;;;;;;;;;;4952379;28;20034;-79
2022/03/04 12:22:01;;;;;;;11.27;5.20;;;;;;;;;;4983093;28;20063;-82
2022/03/04 12:24:32;;;;;;;3.97;2.25;;;;;;;;;;4994696;23;20053;-74
2022/03/04 12:26:58;;;;;;;3.90;2.60;;;;;;;;;;4987645;28;20467;-73
2022/03/04 12:29:41;;;;;;;4.82;2.17;;;;;;;;;;4985241;28;20172;-75
2022/03/04 12:32:07;;;;;;;5.80;2.13;;;;;;;;;;4982321;28;20026;-75
2022/03/04 12:34:36;;;;;;;5.93;2.03;;;;;;;;;;4980541;28;20419;-75
2022/03/04 12:37:06;;;;;;;3.25;2.00;;;;;;;;;;4982668;28;20048;-76
2022/03/04 12:39:35;;;;;;;2.20;1.70;;;;;;;;;;4983818;28;20034;-73
2022/03/04 12:42:01;;;;;;;3.90;1.90;;;;;;;;;;4981946;28;20050;-73
2022/03/04 12:44:28;;;;;;;3.78;1.80;;;;;;;;;;4983062;28;20022;-76
2022/03/04 12:46:54;;;;;;;3.15;2.08;;;;;;;;;;4986709;28;20057;-76
2022/03/04 12:49:30;;;;;;;3.72;1.90;;;;;;;;;;4985802;28;20041;-76
2022/03/04 12:51:56;;;;;;;5.93;2.13;;;;;;;;;;4985285;28;20048;-76
2022/03/04 12:54:25;;;;;;;4.68;2.00;;;;;;;;;;4988161;28;20026;-77
2022/03/04 12:57:01;;;;;;;4.38;1.92;;;;;;;;;;4987266;28;20435;-76
2022/03/04 12:59:28;;;;;;;5.13;1.98;;;;;;;;;;4989323;28;20044;-77
2022/03/04 13:01:55;;;;;;;4.60;1.80;;;;;;;;;;4985635;28;20049;-77
2022/03/04 13:04:22;;;;;;;5.30;2.40;;;;;;;;;;4984341;28;20057;-77
2022/03/04 13:06:58;;;;;;;4.47;1.98;;;;;;;;;;4975959;28;20038;-76
2022/03/04 13:09:24;;;;;;;4.00;2.53;;;;;;;;;;4980937;28;20034;-77
2022/03/04 13:11:52;;;;;;;2.88;1.90;;;;;;;;;;4980031;28;20089;-76
2022/03/04 13:14:19;;;;;;;1.83;1.50;;;;;;;;;;4981748;28;20584;-77
2022/03/04 13:16:48;;;;;;;2.58;2.25;;;;;;;;;;4981147;28;20029;-76
2022/03/04 13:19:18;;;;;;;2.50;1.67;;;;;;;;;;4981849;28;20562;-76
2022/03/04 13:22:00;;;;;;;2.95;1.30;;;;;;;;;;4981234;28;20030;-77
2022/03/04 13:24:31;;;;;;;3.72;1.95;;;;;;;;;;4981944;28;20077;-76
2022/03/04 13:26:58;;;;;;;3.95;2.00;;;;;;;;;;4980893;28;20031;-77
2022/03/04 13:29:30;;;;;;;2.97;1.80;;;;;;;;;;4981174;28;20026;-78
2022/03/04 13:32:04;;;;;;;5.03;2.20;;;;;;;;;;4985010;28;20038;-78
2022/03/04 13:34:30;;;;;;;3.15;1.75;;;;;;;;;;4985742;28;20190;-77
2022/03/04 13:36:58;;;;;;;4.97;2.28;;;;;;;;;;4983052;28;20038;-78
2022/03/04 13:39:28;;;;;;;3.72;1.58;;;;;;;;;;4983797;28;20093;-76
2022/03/04 13:42:26;;;;;;;3.97;1.98;;;;;;;;;;4983458;28;20030;-77
2022/03/04 13:44:52;;;;;;;3.33;1.35;;;;;;;;;;4940648;28;20100;-77
2022/03/04 13:47:32;;;;;;;2.78;1.70;;;;;;;;;;4986926;28;20361;-76
2022/03/04 13:49:58;;;;;;;4.78;1.80;;;;;;;;;;4986022;28;20488;-77
2022/03/04 13:52:25;;;;;;;2.75;1.70;;;;;;;;;;4986771;28;20034;-75
2022/03/04 13:54:58;;;;;;;3.72;1.95;;;;;;;;;;4986112;28;20026;-76
2022/03/04 13:57:25;;;;;;;4.45;1.90;;;;;;;;;;4983201;28;20673;-74
2022/03/04 13:59:51;;;;;;;2.13;1.52;;;;;;;;;;4983509;28;20151;-76
2022/03/04 14:02:17;;;;;;;2.95;1.90;;;;;;;;;;4985173;28;20026;-75
2022/03/04 14:04:57;;;;;;;3.40;2.03;;;;;;;;;;4982831;28;20631;-77
2022/03/04 14:07:24;;;;;;;3.13;2.03;;;;;;;;;;4985861;28;20080;-74
2022/03/04 14:09:51;;;;;;;3.80;1.92;;;;;;;;;;4983678;28;20034;-75
2022/03/04 14:12:17;;;;;;;3.22;2.28;;;;;;;;;;4985203;28;20042;-76
2022/03/04 14:14:43;;;;;;;2.45;1.60;;;;;;;;;;4985979;28;20679;-79
2022/03/04 14:17:10;;;;;;;4.53;1.80;;;;;;;;;;4988912;28;20030;-75
2022/03/04 14:19:36;;;;;;;2.75;1.63;;;;;;;;;;4988905;28;20105;-76
2022/03/04 14:22:04;;;;;;;3.50;1.77;;;;;;;;;;4985113;28;20036;-76
2022/03/04 14:24:30;;;;;;;5.00;1.90;;;;;;;;;;4986761;28;20053;-77
2022/03/04 14:26:56;;;;;;;3.60;1.65;;;;;;;;;;4988008;28;20101;-77
2022/03/04 14:29:24;;;;;;;1.90;1.60;;;;;;;;;;4991517;28;20502;-75
2022/03/04 14:31:50;;;;;;;2.00;1.77;;;;;;;;;;4988918;28;20035;-76
2022/03/04 14:34:16;;;;;;;2.80;1.70;;;;;;;;;;4988643;28;20058;-77
2022/03/04 14:36:42;;;;;;;1.65;1.55;;;;;;;;;;4987241;28;20553;-76
2022/03/04 14:39:09;;;;;;;2.85;1.55;;;;;;;;;;4987757;28;20062;-77
2022/03/04 14:41:35;;;;;;;6.28;2.00;;;;;;;;;;4988593;28;20028;-79
2022/03/04 14:44:01;;;;;;;5.30;2.05;;;;;;;;;;4992639;28;20114;-77
2022/03/04 14:46:27;;;;;;;3.00;1.70;;;;;;;;;;4990613;28;20042;-77